Terminal Aerodrome Forecast
Issued by NWS Quad Cities IA IL

Home | Current Version | Previous Version | Text Only | Print | Product List | Glossary On
Versions: 1 2 3 4 5 6 7 8 9 10 11 12 13 14 15 16 17 18 19 20 21 22 23 24 25 26 27 28 29
000
FTUS43 KDVN 010010 CCA
TAFMLI
TAF COR
KMLI 010010Z 0100/0124 01006KT P6SM SCT009 OVC015
     FM010130 36005KT P6SM VCSH OVC025
      TEMPO 0102/0105 2SM -DZRA BR BKN007 OVC010
     FM011200 02008KT P6SM VCSH BKN007 OVC015
     FM011600 03006KT P6SM VCSH BKN018 OVC030=

USA.gov is the U.S. government's official web portal to all federal, state and local government web resources and services.